URMG 241230Z 10006MPS 9999 OVC006 02/M00 Q1034 R08/190060 TEMPO 0500 FG BKN002 RMK MT OBSC OBST OBSC QFE760/1014
QNH:(hPa/inHg/mmHg)1034 / 30.53 / 776
QFE:(hPa/inHg/mmHg)1014 / 29.94 / 760
Temperature2
Dew Point-0
Visibility0500
WeatherFog
Cloud CoverOVC (600);
BKN (200);
Transition Height1900 m./6800 ft.
Transition LevelFL80
SQUAWK